Time;durP1;ratioP1;P1;durP2;ratioP2;P2;SDS_P1;SDS_P2;PMS_P1;PMS_P2;Temp;Humidity;BMP_temperature;BMP_pressure;BME280_temperature;BME280_humidity;BME280_pressure;Samples;Min_cycle;Max_cycle;Signal;HPM_P1;HPM_P2
2022/03/22 00:01:30;;;;;;;48.83;30.52;;;5.80;99.90;;;;;;6256412;22;20043;-88
2022/03/22 00:03:55;;;;;;;43.08;31.25;;;5.90;99.90;;;;;;6256102;22;20015;-88
2022/03/22 00:06:22;;;;;;;42.93;30.70;;;5.90;99.90;;;;;;6281429;22;20019;-88
2022/03/22 00:08:48;;;;;;;45.55;31.45;;;5.90;99.90;;;;;;6256096;22;20084;-87
2022/03/22 00:11:14;;;;;;;43.22;32.35;;;5.90;99.90;;;;;;6256004;22;20433;-88
2022/03/22 00:13:43;;;;;;;43.45;31.13;;;5.90;99.90;;;;;;6281417;22;20016;-88
2022/03/22 00:16:09;;;;;;;42.70;30.63;;;5.90;99.90;;;;;;6255884;22;20348;-87
2022/03/22 00:18:38;;;;;;;44.58;30.98;;;5.90;99.90;;;;;;6255681;22;20015;-87
2022/03/22 00:21:06;;;;;;;41.30;30.42;;;5.80;99.90;;;;;;6255533;22;20019;-87
2022/03/22 00:23:33;;;;;;;42.00;28.80;;;5.80;99.90;;;;;;6255411;22;20016;-87
2022/03/22 00:25:59;;;;;;;39.78;29.60;;;5.70;99.90;;;;;;6255644;22;20094;-87
2022/03/22 00:28:25;;;;;;;40.17;30.00;;;5.60;99.90;;;;;;6255742;22;20049;-86
2022/03/22 00:30:50;;;;;;;40.20;30.70;;;5.50;99.90;;;;;;6255726;22;20019;-87
2022/03/22 00:33:16;;;;;;;41.73;30.80;;;5.50;99.90;;;;;;6281047;22;20038;-87
2022/03/22 00:35:42;;;;;;;43.47;32.27;;;5.40;99.90;;;;;;6280909;22;20129;-88
2022/03/22 00:38:16;;;;;;;43.03;32.50;;;5.40;99.90;;;;;;6255639;22;20055;-87
2022/03/22 00:40:42;;;;;;;46.03;31.92;;;5.40;99.90;;;;;;6255426;22;20034;-87
2022/03/22 00:43:09;;;;;;;47.50;34.10;;;5.40;99.90;;;;;;6281010;22;20021;-87
2022/03/22 00:45:37;;;;;;;44.78;32.92;;;5.40;99.90;;;;;;6255359;22;20026;-87
2022/03/22 00:48:05;;;;;;;44.10;31.90;;;5.30;99.90;;;;;;6281009;22;20019;-87
2022/03/22 00:50:36;;;;;;;43.20;31.38;;;5.30;99.90;;;;;;6255507;22;20015;-88
2022/03/22 00:53:04;;;;;;;44.60;32.10;;;5.30;99.90;;;;;;6255661;22;20096;-88
2022/03/22 00:55:31;;;;;;;43.38;31.33;;;5.30;99.90;;;;;;6255416;22;20020;-88
2022/03/22 00:57:56;;;;;;;43.97;31.08;;;5.20;99.90;;;;;;6280817;22;20011;-88
2022/03/22 01:00:27;;;;;;;43.90;32.90;;;5.10;99.90;;;;;;6255601;22;20015;-88
2022/03/22 01:02:55;;;;;;;47.28;32.72;;;5.10;99.90;;;;;;6255539;22;20076;-89
2022/03/22 01:05:23;;;;;;;49.22;33.15;;;5.10;99.90;;;;;;6255293;22;20042;-88
2022/03/22 01:08:01;;;;;;;45.67;32.95;;;5.10;99.90;;;;;;6255680;22;20014;-88
2022/03/22 01:10:29;;;;;;;47.13;33.40;;;5.00;99.90;;;;;;6255348;22;20015;-88
2022/03/22 01:12:55;;;;;;;52.60;35.97;;;5.10;99.90;;;;;;6255127;22;20011;-88
2022/03/22 01:15:33;;;;;;;49.00;35.87;;;5.10;99.90;;;;;;6255544;22;20046;-88
2022/03/22 01:18:03;;;;;;;48.20;36.05;;;5.10;99.90;;;;;;6255515;22;20094;-88
2022/03/22 01:20:31;;;;;;;48.67;35.90;;;5.10;99.90;;;;;;6255364;22;20078;-88
2022/03/22 01:22:57;;;;;;;49.20;36.55;;;5.10;99.90;;;;;;6250092;22;20015;-89
2022/03/22 01:25:25;;;;;;;50.40;36.03;;;5.20;99.90;;;;;;6250303;22;20035;-87
2022/03/22 01:27:52;;;;;;;48.72;35.40;;;5.20;99.90;;;;;;6275956;22;20011;-88
2022/03/22 01:30:22;;;;;;;;;;;5.30;99.90;;;;;;6250792;22;20026;-87
2022/03/22 01:32:52;;;;;;;52.10;36.63;;;5.20;99.90;;;;;;6250042;22;19961;-87
2022/03/22 01:35:19;;;;;;;50.38;36.55;;;5.30;99.90;;;;;;6275481;22;20049;-86
2022/03/22 01:37:50;;;;;;;53.08;37.28;;;5.30;99.90;;;;;;6249830;22;20015;-87
2022/03/22 01:40:17;;;;;;;48.83;35.33;;;5.20;99.90;;;;;;6249735;22;20019;-86
2022/03/22 01:42:43;;;;;;;51.50;36.00;;;5.20;99.90;;;;;;6250102;22;20020;-87
2022/03/22 01:45:10;;;;;;;50.13;37.73;;;5.20;99.90;;;;;;6249655;22;20011;-86
2022/03/22 01:47:37;;;;;;;51.95;37.72;;;5.20;99.90;;;;;;6249835;22;20020;-86
2022/03/22 01:50:18;;;;;;;50.08;35.85;;;5.20;99.90;;;;;;6250092;22;20055;-87
2022/03/22 01:52:44;;;;;;;50.47;35.70;;;5.20;99.90;;;;;;6249749;22;20019;-86
2022/03/22 01:55:16;;;;;;;49.60;35.70;;;5.20;99.90;;;;;;6275252;22;20019;-85
2022/03/22 01:57:42;;;;;;;47.63;34.03;;;5.20;99.90;;;;;;6275253;22;20331;-86
2022/03/22 02:10:38;;;;;;;49.30;35.22;;;5.10;99.90;;;;;;6271043;22;20395;-86
2022/03/22 02:13:04;;;;;;;49.57;35.33;;;5.10;99.90;;;;;;6249751;22;20028;-86
2022/03/22 02:15:31;;;;;;;48.28;35.25;;;5.00;99.90;;;;;;6224030;22;20337;-86
2022/03/22 02:17:57;;;;;;;;;;;5.00;99.90;;;;;;6224876;22;20440;-85
2022/03/22 02:20:23;;;;;;;52.60;36.88;;;4.90;99.90;;;;;;6249606;22;19922;-86
2022/03/22 02:23:28;;;;;;;49.93;36.13;;;4.90;99.90;;;;;;6250671;22;20027;-88
2022/03/22 02:25:54;;;;;;;53.92;37.60;;;4.90;99.90;;;;;;6233625;22;20016;-88
2022/03/22 02:28:21;;;;;;;54.70;38.30;;;4.80;99.90;;;;;;6275315;22;20015;-87
2022/03/22 02:30:47;;;;;;;48.33;36.38;;;4.80;99.90;;;;;;6249941;22;20412;-87
2022/03/22 02:33:13;;;;;;;49.55;36.42;;;4.80;99.90;;;;;;6275483;22;20085;-88
2022/03/22 02:35:39;;;;;;;52.37;37.37;;;4.80;99.90;;;;;;6249799;22;20016;-88
2022/03/22 02:38:17;;;;;;;54.92;36.92;;;4.90;99.90;;;;;;6275537;22;20026;-86
2022/03/22 02:41:21;;;;;;;49.95;37.13;;;4.90;99.90;;;;;;6275354;22;20019;-86
2022/03/22 02:43:48;;;;;;;54.15;38.22;;;4.80;99.90;;;;;;6274894;22;20441;-87
2022/03/22 02:46:14;;;;;;;52.47;37.50;;;4.90;99.90;;;;;;6249572;22;20027;-89
2022/03/22 02:48:41;;;;;;;51.85;37.05;;;4.90;99.90;;;;;;6249700;22;20012;-86
2022/03/22 02:51:07;;;;;;;52.75;37.63;;;4.90;99.90;;;;;;6249575;22;20016;-87
2022/03/22 02:53:33;;;;;;;50.80;37.10;;;4.90;99.90;;;;;;6249713;22;20012;-88
2022/03/22 02:55:59;;;;;;;48.87;36.40;;;4.90;99.90;;;;;;6250787;22;20012;-91
2022/03/22 02:58:26;;;;;;;51.70;38.10;;;4.90;99.90;;;;;;6251462;22;20015;-87
2022/03/22 03:00:51;;;;;;;51.22;37.78;;;4.90;99.90;;;;;;6251569;22;20015;-89
2022/03/22 03:03:22;;;;;;;54.20;37.23;;;4.90;99.90;;;;;;6251823;22;20016;-88
2022/03/22 03:05:51;;;;;;;53.88;37.80;;;4.80;99.90;;;;;;6251299;22;20019;-85
2022/03/22 03:08:18;;;;;;;51.03;37.25;;;4.80;99.90;;;;;;6276901;22;20353;-87
2022/03/22 03:10:45;;;;;;;51.92;37.58;;;4.80;99.90;;;;;;6251570;22;20014;-86
2022/03/22 03:13:11;;;;;;;51.25;37.28;;;4.80;99.90;;;;;;6276737;22;20019;-87
2022/03/22 03:15:37;;;;;;;55.90;40.58;;;4.80;99.90;;;;;;6251583;22;20015;-89
2022/03/22 03:18:03;;;;;;;53.03;38.17;;;4.80;99.90;;;;;;6251591;22;20047;-88
2022/03/22 03:20:29;;;;;;;51.03;36.80;;;4.80;99.90;;;;;;6276893;22;20795;-87
2022/03/22 03:22:56;;;;;;;54.30;38.37;;;4.90;99.90;;;;;;6251154;22;20294;-87
2022/03/22 03:25:22;;;;;;;;;;;4.90;99.90;;;;;;6251739;22;20019;-85
2022/03/22 03:27:49;;;;;;;51.72;37.97;;;4.90;99.90;;;;;;6251268;22;19965;-88
2022/03/22 03:30:16;;;;;;;53.25;38.20;;;4.90;99.90;;;;;;6276926;22;20047;-88
2022/03/22 03:32:43;;;;;;;50.22;36.75;;;4.90;99.90;;;;;;6251397;22;20039;-87
2022/03/22 03:35:08;;;;;;;;;;;4.90;99.90;;;;;;6251631;22;20217;-88
2022/03/22 03:37:35;;;;;;;51.95;35.90;;;4.80;99.90;;;;;;6251354;22;19915;-88
2022/03/22 03:40:05;;;;;;;52.60;37.92;;;4.80;99.90;;;;;;6251352;22;20478;-89
2022/03/22 03:42:31;;;;;;;53.22;37.45;;;4.80;99.90;;;;;;6276771;22;20019;-87
2022/03/22 03:47:41;;;;;;;52.38;36.65;;;4.70;99.90;;;;;;6278117;22;20022;-86
2022/03/22 03:50:08;;;;;;;53.23;37.90;;;4.60;99.90;;;;;;6251180;22;20055;-84
2022/03/22 03:52:36;;;;;;;51.15;37.53;;;4.60;99.90;;;;;;6276119;22;20015;-83
2022/03/22 03:55:05;;;;;;;57.10;39.17;;;4.60;99.90;;;;;;6276423;22;20360;-85
2022/03/22 03:57:32;;;;;;;54.58;38.72;;;4.60;99.90;;;;;;6250682;22;20061;-83
2022/03/22 03:59:59;;;;;;;55.42;38.78;;;4.60;99.90;;;;;;6276023;22;20326;-86
2022/03/22 04:02:25;;;;;;;56.53;39.10;;;4.60;99.90;;;;;;6275978;22;20061;-85
2022/03/22 04:04:52;;;;;;;54.88;39.45;;;4.60;99.90;;;;;;6276207;22;20449;-86
2022/03/22 04:07:19;;;;;;;57.30;38.92;;;4.60;99.90;;;;;;6250389;22;20023;-88
2022/03/22 04:09:45;;;;;;;52.80;37.88;;;4.60;99.90;;;;;;6276308;22;20016;-88
2022/03/22 04:12:14;;;;;;;52.67;37.83;;;4.60;99.90;;;;;;6276751;22;20020;-88
2022/03/22 04:14:40;;;;;;;54.15;37.42;;;4.60;99.90;;;;;;6250976;22;20126;-89
2022/03/22 04:17:09;;;;;;;49.53;36.83;;;4.60;99.90;;;;;;6276703;22;20318;-90
2022/03/22 04:19:36;;;;;;;50.13;37.22;;;4.60;99.90;;;;;;6250573;22;20106;-90
2022/03/22 04:22:08;;;;;;;53.88;38.75;;;4.60;99.90;;;;;;6250808;22;20477;-89
2022/03/22 04:24:34;;;;;;;54.33;37.80;;;4.60;99.90;;;;;;6250821;22;20030;-88
2022/03/22 04:32:44;;;;;;;52.22;36.65;;;4.60;99.90;;;;;;6276027;22;20030;-87
2022/03/22 04:35:20;;;;;;;48.55;35.17;;;4.60;99.90;;;;;;6276232;22;20087;-86
2022/03/22 04:37:52;;;;;;;54.00;38.33;;;4.50;99.90;;;;;;6250680;22;20507;-88
2022/03/22 04:40:19;;;;;;;52.13;37.38;;;4.50;99.90;;;;;;6276298;22;20016;-86
2022/03/22 04:42:47;;;;;;;53.45;37.15;;;4.50;99.90;;;;;;6250592;22;20023;-87
2022/03/22 04:45:13;;;;;;;54.65;37.88;;;4.50;99.90;;;;;;6250475;22;20019;-84
2022/03/22 04:47:39;;;;;;;50.83;37.78;;;4.40;99.90;;;;;;6275840;22;20099;-88
2022/03/22 04:50:06;;;;;;;56.67;39.03;;;4.40;99.90;;;;;;6276210;22;20047;-88
2022/03/22 04:58:02;;;;;;;52.20;36.65;;;4.40;99.90;;;;;;6276148;22;20081;-88
2022/03/22 05:00:28;;;;;;;53.33;38.35;;;4.40;99.90;;;;;;6276046;22;20379;-87
2022/03/22 05:02:53;;;;;;;54.97;39.47;;;4.40;99.90;;;;;;6276205;22;20072;-86
2022/03/22 05:08:04;;;;;;;51.15;37.88;;;4.40;99.90;;;;;;6275745;22;20020;-88
2022/03/22 05:10:32;;;;;;;50.13;36.47;;;4.40;99.90;;;;;;6276043;22;20020;-85
2022/03/22 05:13:00;;;;;;;58.42;38.33;;;4.50;99.90;;;;;;6250146;22;20062;-86
2022/03/22 05:15:26;;;;;;;49.45;36.47;;;4.40;99.90;;;;;;6275921;22;20015;-87
2022/03/22 05:17:51;;;;;;;52.30;37.00;;;4.40;99.90;;;;;;6250320;22;20019;-87
2022/03/22 05:20:17;;;;;;;48.03;35.60;;;4.40;99.90;;;;;;6250228;22;20092;-86
2022/03/22 05:22:44;;;;;;;49.80;36.05;;;4.30;99.90;;;;;;6275535;22;20051;-89
2022/03/22 05:25:10;;;;;;;56.67;37.30;;;4.30;99.90;;;;;;6275582;22;20049;-88
2022/03/22 05:27:37;;;;;;;51.13;37.13;;;4.20;99.90;;;;;;6250334;22;20089;-87
2022/03/22 05:30:07;;;;;;;55.67;38.20;;;4.20;99.90;;;;;;6250174;22;20012;-87
2022/03/22 05:32:33;;;;;;;53.50;38.17;;;4.20;99.90;;;;;;6250109;22;20079;-87
2022/03/22 05:34:59;;;;;;;53.40;38.28;;;4.20;99.90;;;;;;6275652;22;20020;-89
2022/03/22 05:37:25;;;;;;;54.03;38.87;;;4.20;99.90;;;;;;6249773;22;20094;-87
2022/03/22 05:39:51;;;;;;;53.83;38.47;;;4.20;99.90;;;;;;6250001;22;20026;-86
2022/03/22 05:42:17;;;;;;;53.20;37.75;;;4.20;99.90;;;;;;6250171;22;20246;-88
2022/03/22 05:44:47;;;;;;;52.17;38.10;;;4.20;99.90;;;;;;6249526;22;20445;-85
2022/03/22 05:47:13;;;;;;;50.35;37.95;;;4.20;99.90;;;;;;6249706;22;20051;-87
2022/03/22 05:49:39;;;;;;;52.80;37.38;;;4.30;99.90;;;;;;6275607;22;20016;-87
2022/03/22 05:52:06;;;;;;;53.67;37.60;;;4.20;99.90;;;;;;6275492;22;20103;-89
2022/03/22 05:54:32;;;;;;;50.33;37.20;;;4.30;99.90;;;;;;6250209;22;20069;-88
2022/03/22 05:56:58;;;;;;;55.10;38.50;;;4.20;99.90;;;;;;6250037;22;20011;-87
2022/03/22 05:59:26;;;;;;;51.88;36.47;;;4.30;99.90;;;;;;6250250;22;20022;-82
2022/03/22 06:01:57;;;;;;;55.70;38.60;;;4.30;99.90;;;;;;6276752;22;20383;-88
2022/03/22 06:04:23;;;;;;;55.17;37.08;;;4.30;99.90;;;;;;6276621;22;20016;-84
2022/03/22 06:06:49;;;;;;;52.67;37.25;;;4.30;99.90;;;;;;6249890;22;20114;-88
2022/03/22 06:09:15;;;;;;;53.50;36.95;;;4.30;99.90;;;;;;6249920;22;20421;-90
2022/03/22 06:11:41;;;;;;;52.45;37.58;;;4.30;99.90;;;;;;6275659;22;20026;-85
2022/03/22 06:14:07;;;;;;;51.10;37.93;;;4.30;99.90;;;;;;6275225;22;20020;-84
2022/03/22 06:16:33;;;;;;;51.55;37.92;;;4.30;99.90;;;;;;6249713;22;20436;-83
2022/03/22 06:18:59;;;;;;;49.80;37.30;;;4.40;99.90;;;;;;6275170;22;20016;-85
2022/03/22 06:21:25;;;;;;;55.40;38.00;;;4.40;99.90;;;;;;6275389;22;20019;-87
2022/03/22 06:23:52;;;;;;;51.30;36.65;;;4.40;99.90;;;;;;6296772;22;20284;-85
2022/03/22 06:26:18;;;;;;;52.00;36.78;;;4.40;99.90;;;;;;6254301;22;20019;-84
2022/03/22 06:28:44;;;;;;;50.90;36.47;;;4.50;99.90;;;;;;6280173;22;20042;-86
2022/03/22 06:31:10;;;;;;;49.95;35.58;;;4.50;99.90;;;;;;6254524;22;20011;-84
2022/03/22 06:33:36;;;;;;;49.07;36.40;;;4.60;99.90;;;;;;6282148;22;20011;-86
2022/03/22 06:36:04;;;;;;;51.73;37.23;;;4.60;99.90;;;;;;6281999;22;20538;-85
2022/03/22 06:38:32;;;;;;;53.80;38.38;;;4.70;99.90;;;;;;6256271;22;20017;-85
2022/03/22 06:40:59;;;;;;;50.05;36.10;;;4.70;99.90;;;;;;6282042;22;20019;-83
2022/03/22 06:43:25;;;;;;;52.10;36.03;;;4.80;99.90;;;;;;6309207;22;20475;-85
2022/03/22 06:45:51;;;;;;;52.38;37.22;;;4.80;99.90;;;;;;6281943;22;20471;-85
2022/03/22 06:48:17;;;;;;;53.97;37.70;;;4.90;99.90;;;;;;6256397;22;20050;-85
2022/03/22 06:50:44;;;;;;;53.80;36.58;;;4.90;99.90;;;;;;6256324;22;20066;-87
2022/03/22 06:53:10;;;;;;;49.05;36.17;;;4.90;99.90;;;;;;6256354;22;20379;-86
2022/03/22 06:55:37;;;;;;;53.80;37.10;;;5.00;99.90;;;;;;6256601;22;20072;-85
2022/03/22 06:58:05;;;;;;;50.08;36.63;;;5.00;99.90;;;;;;6282052;22;20102;-85
2022/03/22 07:00:31;;;;;;;54.15;37.05;;;5.10;99.90;;;;;;6281975;22;20038;-83
2022/03/22 07:02:58;;;;;;;51.55;37.10;;;5.20;99.90;;;;;;6281855;22;20015;-85
2022/03/22 07:05:24;;;;;;;47.25;34.88;;;5.30;99.90;;;;;;6281681;22;20015;-83
2022/03/22 07:07:50;;;;;;;49.72;35.45;;;5.40;99.90;;;;;;6281931;22;20015;-88
2022/03/22 07:10:18;;;;;;;52.13;35.83;;;5.40;99.90;;;;;;6256276;22;20015;-84
2022/03/22 07:12:51;;;;;;;51.88;36.45;;;5.50;99.90;;;;;;6281619;22;20018;-87
2022/03/22 07:15:23;;;;;;;49.95;36.58;;;5.50;99.90;;;;;;6281797;22;20015;-87
2022/03/22 07:17:52;;;;;;;52.67;37.28;;;5.60;99.90;;;;;;6255634;22;20069;-82
2022/03/22 07:20:19;;;;;;;52.65;38.38;;;5.70;99.90;;;;;;6280387;22;20042;-85
2022/03/22 07:22:46;;;;;;;54.58;38.28;;;5.80;99.90;;;;;;6280359;22;20395;-85
2022/03/22 07:25:11;;;;;;;51.17;37.17;;;5.90;99.90;;;;;;6280517;22;20023;-85
2022/03/22 07:27:37;;;;;;;54.63;38.73;;;6.00;99.90;;;;;;6279684;22;20054;-88
2022/03/22 07:30:04;;;;;;;58.00;39.57;;;6.10;99.90;;;;;;6281555;22;20337;-87
2022/03/22 07:32:30;;;;;;;;;;;6.20;99.90;;;;;;6255982;22;20387;-86
2022/03/22 07:34:59;;;;;;;52.85;38.70;;;6.30;99.90;;;;;;6281412;22;19954;-86
2022/03/22 07:37:26;;;;;;;53.72;37.35;;;6.40;99.90;;;;;;6255822;22;20019;-86
2022/03/22 07:39:52;;;;;;;52.28;37.90;;;6.40;99.90;;;;;;6281488;22;20109;-86
2022/03/22 07:42:18;;;;;;;55.25;38.95;;;6.50;99.90;;;;;;6255500;22;20019;-92
2022/03/22 07:44:45;;;;;;;54.10;37.60;;;6.70;99.90;;;;;;6282384;22;20011;-90
2022/03/22 07:47:13;;;;;;;54.30;38.85;;;6.70;99.90;;;;;;6309194;22;20015;-89
2022/03/22 07:55:10;;;;;;;55.42;39.33;;;7.00;99.90;;;;;;6281710;22;20023;-89
2022/03/22 07:57:36;;;;;;;56.42;39.95;;;7.10;99.90;;;;;;6308909;22;20313;-86
2022/03/22 08:00:04;;;;;;;53.40;39.33;;;7.20;99.90;;;;;;6281461;22;20019;-84
2022/03/22 08:02:32;;;;;;;54.28;38.63;;;7.30;99.90;;;;;;6255762;22;20016;-87
2022/03/22 08:04:58;;;;;;;54.90;39.13;;;7.40;99.90;;;;;;6256001;22;20448;-88
2022/03/22 08:07:24;;;;;;;53.10;38.97;;;7.50;99.90;;;;;;6255653;22;20061;-89
2022/03/22 08:09:50;;;;;;;53.13;39.03;;;7.60;99.90;;;;;;6255819;22;20015;-88
2022/03/22 08:12:15;;;;;;;52.87;38.77;;;7.80;99.90;;;;;;6256206;22;20019;-88
2022/03/22 08:14:41;;;;;;;51.17;36.73;;;7.90;99.90;;;;;;6256051;22;20012;-92
2022/03/22 08:17:07;;;;;;;51.93;36.97;;;8.10;99.90;;;;;;6282327;22;20023;-94
2022/03/22 08:19:33;;;;;;;49.37;36.83;;;8.20;99.90;;;;;;6310594;22;20030;-89
2022/03/22 08:21:58;;;;;;;53.47;39.80;;;8.30;99.90;;;;;;6282318;22;20306;-85
2022/03/22 08:24:24;;;;;;;53.17;38.67;;;8.50;99.90;;;;;;6275590;22;20074;-83
2022/03/22 08:26:50;;;;;;;50.03;36.90;;;8.60;99.90;;;;;;6250035;22;20110;-85
2022/03/22 08:29:16;;;;;;;48.00;36.07;;;8.70;99.90;;;;;;6276128;22;20249;-87
2022/03/22 08:31:43;;;;;;;47.65;35.28;;;8.90;99.90;;;;;;6278209;22;20090;-89
2022/03/22 08:34:09;;;;;;;48.78;34.30;;;9.00;99.90;;;;;;6249921;22;20023;-91
2022/03/22 08:36:34;;;;;;;50.47;35.00;;;9.10;99.90;;;;;;6276541;22;20015;-94
2022/03/22 08:39:00;;;;;;;50.60;36.77;;;9.20;99.90;;;;;;6250720;22;20099;-92
2022/03/22 08:41:27;;;;;;;48.78;37.80;;;9.20;99.90;;;;;;6276213;22;20020;-92
2022/03/22 08:43:52;;;;;;;47.80;34.83;;;9.30;99.90;;;;;;6249989;22;20053;-89
2022/03/22 08:46:24;;;;;;;51.47;36.33;;;9.40;99.90;;;;;;6274281;22;20015;-91
2022/03/22 08:48:51;;;;;;;49.20;35.15;;;9.60;99.90;;;;;;6275559;22;20043;-88
2022/03/22 08:51:19;;;;;;;43.95;33.63;;;9.70;99.90;;;;;;6250452;22;20314;-87
2022/03/22 08:53:44;;;;;;;48.50;35.00;;;9.80;99.90;;;;;;6275621;22;20020;-88
2022/03/22 08:56:11;;;;;;;48.17;35.13;;;10.00;99.90;;;;;;6250516;22;20019;-91
2022/03/22 08:58:37;;;;;;;50.65;34.25;;;10.10;99.90;;;;;;6276142;22;20073;-87
2022/03/22 09:01:03;;;;;;;46.70;33.78;;;10.20;99.90;;;;;;6276144;22;20016;-90
2022/03/22 09:03:31;;;;;;;51.00;34.22;;;10.40;99.90;;;;;;6250311;22;20015;-88
2022/03/22 09:06:10;;;;;;;44.45;30.20;;;10.40;99.90;;;;;;6278051;22;20020;-85
2022/03/22 09:08:37;;;;;;;45.10;32.10;;;10.60;99.90;;;;;;6275408;22;20078;-83
2022/03/22 09:11:04;;;;;;;45.80;30.58;;;10.70;99.90;;;;;;6275317;22;20012;-85
2022/03/22 09:13:30;;;;;;;39.05;28.95;;;10.90;99.90;;;;;;6275285;22;20016;-86
2022/03/22 09:15:57;;;;;;;42.73;28.70;;;11.00;99.90;;;;;;6249697;22;20019;-85
2022/03/22 09:18:23;;;;;;;39.88;27.55;;;11.10;99.90;;;;;;6275568;22;20015;-85
2022/03/22 09:20:49;;;;;;;40.23;28.30;;;11.20;99.90;;;;;;6249688;22;20030;-85
2022/03/22 09:23:16;;;;;;;41.13;28.48;;;11.40;99.90;;;;;;6249653;22;20016;-85
2022/03/22 09:25:43;;;;;;;39.40;29.63;;;11.50;99.90;;;;;;6274911;22;20030;-84
2022/03/22 09:28:10;;;;;;;40.63;27.92;;;11.60;99.90;;;;;;6275072;22;20322;-85
2022/03/22 09:30:38;;;;;;;39.35;26.85;;;11.70;99.90;;;;;;6275185;22;20050;-85
2022/03/22 09:33:05;;;;;;;40.53;28.00;;;11.80;99.90;;;;;;6275226;22;20047;-85
2022/03/22 09:35:31;;;;;;;38.10;27.35;;;11.90;99.90;;;;;;6275079;22;20436;-85
2022/03/22 09:37:57;;;;;;;;;;;12.00;99.90;;;;;;6275426;22;20437;-85
2022/03/22 09:40:24;;;;;;;37.03;26.95;;;12.10;99.90;;;;;;6275454;22;19915;-85
2022/03/22 09:42:50;;;;;;;39.10;27.08;;;12.20;99.90;;;;;;6275212;22;20020;-85
2022/03/22 09:45:24;;;;;;;42.85;27.88;;;12.30;99.90;;;;;;6249441;22;20048;-86
2022/03/22 09:47:50;;;;;;;37.83;26.90;;;12.40;99.90;;;;;;6274826;22;20461;-85
2022/03/22 09:50:17;;;;;;;38.75;26.50;;;12.50;99.90;;;;;;6275100;22;20015;-85
2022/03/22 09:52:43;;;;;;;39.63;26.35;;;12.60;99.90;;;;;;6274913;22;20459;-85
2022/03/22 09:55:11;;;;;;;41.63;26.73;;;12.70;99.90;;;;;;6275161;22;20314;-85
2022/03/22 09:57:38;;;;;;;38.10;26.52;;;12.80;99.90;;;;;;6275059;22;20012;-87
2022/03/22 10:00:06;;;;;;;34.38;26.38;;;12.90;99.90;;;;;;6275108;22;20015;-85
2022/03/22 10:02:34;;;;;;;41.22;25.65;;;13.00;99.90;;;;;;6249499;22;20046;-86
2022/03/22 10:05:00;;;;;;;37.00;26.52;;;13.20;99.90;;;;;;6249390;22;20396;-85
2022/03/22 10:07:29;;;;;;;38.00;26.23;;;13.30;99.90;;;;;;6275137;22;20019;-85
2022/03/22 10:09:58;;;;;;;37.60;26.75;;;13.40;99.90;;;;;;6249470;22;20023;-86
2022/03/22 10:12:36;;;;;;;39.72;26.85;;;13.50;99.90;;;;;;6275006;22;20031;-84
2022/03/22 10:15:12;;;;;;;39.20;25.63;;;13.60;99.90;;;;;;6275457;22;20058;-85
2022/03/22 10:17:38;;;;;;;37.67;26.08;;;13.70;99.90;;;;;;6274944;22;20054;-85
2022/03/22 10:20:06;;;;;;;39.53;25.33;;;13.80;99.90;;;;;;6274899;22;20016;-86
2022/03/22 10:22:34;;;;;;;40.28;25.85;;;14.00;99.90;;;;;;6252249;22;20471;-84
2022/03/22 10:25:03;;;;;;;39.95;27.02;;;14.10;99.90;;;;;;6279999;22;20062;-85
2022/03/22 10:27:30;;;;;;;36.15;25.27;;;14.20;99.90;;;;;;6279980;22;20019;-84
2022/03/22 10:29:57;;;;;;;36.80;26.90;;;14.30;99.90;;;;;;6254324;22;20015;-85
2022/03/22 10:32:52;;;;;;;;;;;14.40;99.80;;;;;;6280541;22;20456;-86
2022/03/22 10:35:22;;;;;;;35.03;24.73;;;14.50;99.90;;;;;;6251420;22;19945;-86
2022/03/22 10:37:54;;;;;;;34.38;24.30;;;14.60;99.90;;;;;;6279920;22;20086;-84
2022/03/22 10:40:27;;;;;;;37.17;24.88;;;14.70;99.50;;;;;;6279888;22;20024;-85
2022/03/22 10:42:57;;;;;;;34.83;24.95;;;14.80;98.50;;;;;;6254220;22;20023;-84
2022/03/22 10:45:23;;;;;;;35.00;25.02;;;14.90;97.80;;;;;;6279736;22;20030;-85
2022/03/22 10:47:49;;;;;;;;;;;15.00;97.20;;;;;;6280741;22;20073;-85
2022/03/22 10:50:15;;;;;;;39.03;25.45;;;15.10;98.70;;;;;;6279843;22;19968;-85
2022/03/22 10:52:56;;;;;;;37.47;25.15;;;15.10;97.20;;;;;;6254351;22;20053;-85
2022/03/22 10:55:23;;;;;;;34.97;24.77;;;15.30;96.40;;;;;;6279891;22;20068;-86
2022/03/22 10:57:55;;;;;;;37.33;24.95;;;15.30;95.60;;;;;;6279813;22;20400;-85
2022/03/22 11:00:21;;;;;;;41.10;25.38;;;15.40;94.90;;;;;;6279815;22;20019;-84
2022/03/22 11:02:49;;;;;;;;;;;15.50;94.40;;;;;;6254699;22;20019;-84
2022/03/22 11:05:15;;;;;;;39.08;24.92;;;15.60;95.80;;;;;;6279508;22;19915;-85
2022/03/22 11:07:42;;;;;;;36.45;25.52;;;15.60;94.90;;;;;;6254110;22;20336;-87
2022/03/22 11:10:08;;;;;;;;;;;15.70;94.50;;;;;;6280092;22;20090;-86
2022/03/22 11:12:34;;;;;;;36.80;25.60;;;15.80;95.00;;;;;;6254171;22;19915;-84
2022/03/22 11:15:00;;;;;;;;;;;15.90;94.00;;;;;;6254709;22;20012;-85
2022/03/22 11:17:29;;;;;;;38.65;25.67;;;16.00;95.40;;;;;;6281008;22;19922;-85
2022/03/22 11:19:56;;;;;;;34.80;23.90;;;16.10;93.80;;;;;;6255971;22;20020;-86
2022/03/22 11:22:22;;;;;;;;;;;16.20;93.20;;;;;;6256374;22;20011;-85
2022/03/22 11:24:48;;;;;;;37.20;24.95;;;16.20;94.10;;;;;;6281231;22;19946;-85
2022/03/22 11:27:14;;;;;;;36.13;25.38;;;16.30;93.20;;;;;;6255565;22;20019;-85
2022/03/22 11:29:41;;;;;;;36.92;25.05;;;16.40;92.70;;;;;;6308805;22;20051;-83
2022/03/22 11:34:55;;;;;;;36.85;26.13;;;16.50;91.40;;;;;;6280226;22;20038;-84
2022/03/22 11:37:31;;;;;;;37.03;25.17;;;16.70;91.00;;;;;;6278660;22;20015;-84
2022/03/22 11:42:57;;;;;;;42.17;26.25;;;16.80;90.50;;;;;;6281039;22;20027;-83
2022/03/22 11:45:24;;;;;;;36.20;25.13;;;16.80;90.20;;;;;;6280992;22;20027;-85
2022/03/22 11:47:54;;;;;;;38.63;26.52;;;16.80;90.30;;;;;;6280995;22;20140;-84
2022/03/22 11:50:22;;;;;;;32.45;24.27;;;16.90;90.00;;;;;;6280751;22;20017;-84
2022/03/22 11:52:54;;;;;;;38.88;25.63;;;16.90;88.90;;;;;;6281153;22;20094;-85
2022/03/22 11:55:23;;;;;;;36.42;24.40;;;17.00;87.80;;;;;;6279207;22;20074;-85
2022/03/22 11:57:56;;;;;;;39.83;25.30;;;17.10;86.50;;;;;;6279839;22;20073;-85
2022/03/22 12:00:42;;;;;;;38.22;24.02;;;17.20;86.70;;;;;;6255561;22;20019;-85
2022/03/22 12:03:13;;;;;;;36.17;23.98;;;17.20;85.60;;;;;;6255634;22;20015;-84
2022/03/22 12:05:40;;;;;;;35.38;24.40;;;17.30;85.60;;;;;;6255495;22;20050;-84
2022/03/22 12:08:07;;;;;;;35.40;25.02;;;17.50;85.80;;;;;;6281133;22;20019;-84
2022/03/22 12:10:33;;;;;;;37.70;24.00;;;17.50;84.40;;;;;;6280963;22;20026;-84
2022/03/22 12:12:59;;;;;;;36.97;24.05;;;17.60;82.60;;;;;;6255243;22;20019;-84
2022/03/22 12:15:25;;;;;;;34.35;23.90;;;17.60;82.40;;;;;;6255464;22;20015;-84
2022/03/22 12:17:52;;;;;;;34.65;22.80;;;17.70;82.20;;;;;;6281457;22;20022;-84
2022/03/22 12:20:22;;;;;;;36.75;23.38;;;17.70;81.80;;;;;;6280922;22;20007;-83
2022/03/22 12:22:53;;;;;;;32.92;22.90;;;17.80;81.90;;;;;;6280680;22;20019;-84
2022/03/22 12:25:21;;;;;;;37.17;23.35;;;17.90;81.10;;;;;;6275497;22;20027;-85
2022/03/22 12:27:52;;;;;;;34.13;22.52;;;18.00;80.10;;;;;;6276810;22;20034;-84
2022/03/22 12:30:20;;;;;;;37.67;22.75;;;18.00;79.00;;;;;;6250096;22;20012;-85
2022/03/22 12:32:49;;;;;;;35.47;23.60;;;18.00;79.90;;;;;;6275713;22;20046;-84
2022/03/22 12:35:15;;;;;;;32.95;22.60;;;18.10;78.60;;;;;;6275593;22;20039;-84
2022/03/22 12:37:40;;;;;;;34.58;22.63;;;18.10;77.60;;;;;;6275604;22;20019;-86
2022/03/22 12:40:07;;;;;;;33.45;22.52;;;18.20;77.60;;;;;;6277341;22;20022;-84
2022/03/22 12:42:33;;;;;;;33.53;22.60;;;18.20;77.90;;;;;;6274891;22;20019;-84
2022/03/22 12:44:59;;;;;;;35.67;23.17;;;18.20;77.90;;;;;;6274193;22;20053;-85
2022/03/22 12:47:25;;;;;;;35.78;22.33;;;18.30;76.80;;;;;;6248935;22;20019;-85
2022/03/22 12:49:51;;;;;;;34.22;23.25;;;18.30;76.30;;;;;;6275558;22;20091;-85
2022/03/22 12:52:17;;;;;;;32.88;22.60;;;18.30;76.10;;;;;;6275684;22;20128;-85
2022/03/22 12:54:43;;;;;;;35.05;23.30;;;18.20;75.70;;;;;;6275375;22;20023;-85
2022/03/22 12:57:14;;;;;;;32.20;21.48;;;18.30;76.10;;;;;;6275462;22;20352;-85
2022/03/22 12:59:40;;;;;;;33.92;22.30;;;18.30;75.60;;;;;;6275459;22;20338;-85
2022/03/22 13:02:07;;;;;;;;;;;18.40;74.70;;;;;;6275982;22;20090;-84
2022/03/22 13:04:46;;;;;;;36.60;22.98;;;18.40;76.40;;;;;;6275659;22;20524;-85
2022/03/22 13:07:23;;;;;;;32.40;21.73;;;18.40;72.80;;;;;;6249807;22;20022;-85
2022/03/22 13:12:34;;;;;;;33.42;22.75;;;18.30;72.70;;;;;;6276737;22;20015;-85
2022/03/22 13:15:15;;;;;;;33.38;21.60;;;18.40;73.20;;;;;;6275259;22;20016;-86
2022/03/22 13:17:45;;;;;;;34.63;22.15;;;18.40;73.50;;;;;;6274991;22;20582;-85
2022/03/22 13:20:27;;;;;;;33.67;21.02;;;18.40;73.00;;;;;;6275270;22;20047;-85
2022/03/22 13:22:59;;;;;;;35.95;22.00;;;18.50;73.30;;;;;;6275349;22;20553;-86